createdAt,value
2017-10-18T00:02:09.057Z,34.23
2017-10-18T00:04:36.597Z,28.10
2017-10-18T00:07:04.057Z,33.67
2017-10-18T00:09:31.536Z,36.80
2017-10-18T00:11:59.017Z,31.93
2017-10-18T00:14:26.527Z,35.87
2017-10-18T00:16:54.083Z,32.40
2017-10-18T00:19:21.570Z,37.83
2017-10-18T00:21:49.148Z,32.33
2017-10-18T00:24:16.634Z,35.00
2017-10-18T00:26:44.114Z,30.37
2017-10-18T00:29:11.590Z,32.70
2017-10-18T00:31:39.079Z,31.57
2017-10-18T00:34:07.326Z,32.70
2017-10-18T00:36:34.932Z,31.00
2017-10-18T00:39:03.178Z,36.10
2017-10-18T00:41:30.660Z,36.23
2017-10-18T00:43:58.932Z,32.00
2017-10-18T00:46:27.198Z,30.37
2017-10-18T00:48:54.694Z,39.17
2017-10-18T00:51:22.157Z,37.70
2017-10-18T00:53:49.635Z,29.50
2017-10-18T00:56:17.121Z,30.00
2017-10-18T00:58:44.597Z,33.77
2017-10-18T01:01:12.835Z,28.50
2017-10-18T01:03:40.313Z,32.10
2017-10-18T01:06:07.789Z,32.70
2017-10-18T01:08:36.039Z,29.20
2017-10-18T01:11:03.509Z,31.77
2017-10-18T01:13:31.753Z,30.97
2017-10-18T01:15:59.233Z,39.30
2017-10-18T01:18:26.774Z,30.97
2017-10-18T01:20:54.297Z,35.73
2017-10-18T01:23:21.756Z,30.40
2017-10-18T01:25:49.265Z,33.83
2017-10-18T01:28:17.541Z,29.30
2017-10-18T01:30:45.103Z,36.23
2017-10-18T01:33:12.569Z,29.60
2017-10-18T01:35:40.829Z,31.50
2017-10-18T01:38:08.297Z,29.23
2017-10-18T01:40:36.574Z,30.10
2017-10-18T01:43:04.806Z,41.23
2017-10-18T01:45:32.287Z,33.33
2017-10-18T01:47:59.755Z,32.07
2017-10-18T01:50:27.227Z,29.50
2017-10-18T01:52:55.532Z,32.30
2017-10-18T01:55:23.569Z,30.17
2017-10-18T01:57:51.806Z,36.37
2017-10-18T02:00:19.267Z,29.50
2017-10-18T02:02:46.857Z,34.00
2017-10-18T02:05:15.129Z,31.00
2017-10-18T02:07:43.366Z,35.33
2017-10-18T02:10:10.858Z,40.10
2017-10-18T02:12:39.178Z,33.77
2017-10-18T02:15:06.637Z,35.10
2017-10-18T02:17:34.145Z,36.03
2017-10-18T02:20:02.422Z,34.20
2017-10-18T02:22:29.911Z,35.87
2017-10-18T02:24:57.388Z,33.00
2017-10-18T02:27:24.857Z,38.40
2017-10-18T02:29:52.320Z,36.67
2017-10-18T02:32:19.817Z,35.27
2017-10-18T02:34:48.059Z,35.10
2017-10-18T02:37:15.532Z,35.90
2017-10-18T02:39:43.110Z,36.73
2017-10-18T02:42:11.329Z,38.87
2017-10-18T02:44:38.836Z,39.63
2017-10-18T02:47:07.153Z,38.53
2017-10-18T02:49:34.639Z,36.27
2017-10-18T02:52:02.127Z,35.93
2017-10-18T02:54:30.376Z,34.97
2017-10-18T02:56:57.853Z,35.00
2017-10-18T02:59:26.146Z,31.70
2017-10-18T03:01:54.373Z,33.47
2017-10-18T03:04:21.966Z,31.63
2017-10-18T03:06:50.202Z,30.00
2017-10-18T03:09:17.699Z,29.13
2017-10-18T03:11:45.950Z,36.30
2017-10-18T03:14:13.432Z,27.40
2017-10-18T03:16:41.684Z,32.37
2017-10-18T03:19:09.256Z,34.27
2017-10-18T03:21:36.724Z,39.30
2017-10-18T03:24:04.957Z,34.23
2017-10-18T03:26:32.422Z,32.33
2017-10-18T03:28:59.904Z,57.17
2017-10-18T03:31:27.370Z,41.77
2017-10-18T03:33:55.649Z,48.20
2017-10-18T03:36:23.883Z,43.87
2017-10-18T03:38:51.363Z,58.63
2017-10-18T03:41:18.927Z,39.63
2017-10-18T03:43:46.398Z,51.37
2017-10-18T03:46:14.665Z,45.40
2017-10-18T03:48:42.915Z,48.37
2017-10-18T03:51:10.438Z,37.90
2017-10-18T03:53:37.910Z,46.07
2017-10-18T03:56:05.377Z,44.23
2017-10-18T03:58:32.852Z,35.37
2017-10-18T04:01:00.420Z,41.50
2017-10-18T04:03:27.925Z,36.80
2017-10-18T04:05:55.394Z,38.40
2017-10-18T04:08:22.878Z,36.10
2017-10-18T04:10:50.451Z,36.90
2017-10-18T04:13:18.000Z,36.90
2017-10-18T04:15:45.570Z,37.13
2017-10-18T04:18:13.032Z,41.17
2017-10-18T04:20:41.296Z,44.40
2017-10-18T04:23:09.565Z,39.60
2017-10-18T04:25:37.049Z,50.93
2017-10-18T04:28:05.284Z,39.40
2017-10-18T04:30:32.753Z,43.97
2017-10-18T04:33:00.313Z,44.60
2017-10-18T04:35:27.893Z,43.80
2017-10-18T04:37:56.206Z,40.43
2017-10-18T04:40:23.678Z,41.10
2017-10-18T04:42:51.165Z,39.50
2017-10-18T04:45:18.638Z,46.10
2017-10-18T04:47:46.891Z,43.23
2017-10-18T04:50:14.365Z,42.23
2017-10-18T04:52:41.839Z,38.13
2017-10-18T04:55:09.381Z,37.13
2017-10-18T04:57:36.857Z,46.80
2017-10-18T05:00:05.100Z,36.50
2017-10-18T05:02:32.577Z,33.23
2017-10-18T05:05:00.824Z,34.60
2017-10-18T05:07:28.290Z,39.47
2017-10-18T05:09:55.766Z,36.23
2017-10-18T05:12:24.008Z,31.20
2017-10-18T05:14:51.484Z,30.07
2017-10-18T05:17:18.952Z,35.83
2017-10-18T05:19:47.221Z,38.10
2017-10-18T05:22:14.689Z,26.80
2017-10-18T05:24:43.105Z,39.60
2017-10-18T05:27:10.574Z,25.73
2017-10-18T05:29:38.046Z,30.70
2017-10-18T05:32:05.633Z,31.07
2017-10-18T05:34:33.906Z,30.10
2017-10-18T05:37:02.147Z,29.33
2017-10-18T05:39:29.612Z,28.80
2017-10-18T05:41:57.181Z,35.83
2017-10-18T05:44:24.648Z,35.73
2017-10-18T05:46:52.120Z,29.27
2017-10-18T05:49:20.397Z,38.17
2017-10-18T05:51:48.648Z,31.20
2017-10-18T05:54:16.109Z,35.73
2017-10-18T05:56:43.589Z,30.97
2017-10-18T05:59:11.906Z,30.57
2017-10-18T06:01:39.365Z,35.23
2017-10-18T06:04:06.837Z,38.97
2017-10-18T06:06:34.310Z,29.97
2017-10-18T06:09:01.794Z,29.13
2017-10-18T06:11:30.020Z,35.07
2017-10-18T06:13:57.489Z,35.93
2017-10-18T06:16:25.057Z,40.20
2017-10-18T06:18:52.542Z,41.93
2017-10-18T06:21:20.017Z,47.07
2017-10-18T06:23:47.500Z,42.83
2017-10-18T06:26:14.983Z,48.93
2017-10-18T06:28:42.489Z,42.43
2017-10-18T06:31:09.957Z,44.63
2017-10-18T06:33:37.513Z,53.27
2017-10-18T06:36:04.984Z,40.80
2017-10-18T06:38:32.444Z,50.27
2017-10-18T06:40:59.945Z,51.23
2017-10-18T06:43:28.209Z,41.40
2017-10-18T06:45:55.686Z,49.83
2017-10-18T06:48:23.944Z,41.40
2017-10-18T06:50:51.514Z,34.50
2017-10-18T06:53:19.743Z,35.27
2017-10-18T06:55:47.204Z,38.80
2017-10-18T06:58:14.682Z,39.63
2017-10-18T07:00:42.247Z,41.40
2017-10-18T07:03:09.726Z,41.00
2017-10-18T07:05:37.958Z,44.90
2017-10-18T07:08:05.421Z,39.40
2017-10-18T07:10:32.915Z,37.10
2017-10-18T07:13:01.180Z,38.57
2017-10-18T07:15:29.427Z,38.43
2017-10-18T07:17:56.950Z,46.80
2017-10-18T07:20:24.508Z,39.13
2017-10-18T07:22:51.985Z,48.87
2017-10-18T07:25:19.497Z,43.80
2017-10-18T07:27:47.726Z,39.07
2017-10-18T07:30:15.311Z,43.50
2017-10-18T07:32:42.790Z,41.90
2017-10-18T07:35:10.377Z,46.23
2017-10-18T07:37:37.850Z,38.60
2017-10-18T07:40:05.333Z,38.37
2017-10-18T07:42:32.841Z,39.27
2017-10-18T07:45:00.300Z,43.40
2017-10-18T07:47:27.779Z,35.47
2017-10-18T07:49:55.237Z,40.83
2017-10-18T07:52:22.708Z,37.83
2017-10-18T07:54:50.174Z,39.40
2017-10-18T07:57:17.707Z,39.10
2017-10-18T07:59:45.177Z,33.77
2017-10-18T08:02:12.646Z,34.40
2017-10-18T08:04:40.210Z,35.53
2017-10-18T08:07:08.454Z,33.53
2017-10-18T08:09:35.939Z,35.23
2017-10-18T08:12:03.410Z,44.60
2017-10-18T08:14:31.711Z,38.53
2017-10-18T08:16:59.182Z,34.37
2017-10-18T08:19:26.664Z,38.03
2017-10-18T08:21:54.156Z,44.00
2017-10-18T08:24:21.755Z,41.40
2017-10-18T08:26:49.230Z,54.17
2017-10-18T08:29:16.829Z,60.20
2017-10-18T08:31:44.301Z,58.40
2017-10-18T08:34:12.607Z,54.03
2017-10-18T08:36:40.331Z,56.37
2017-10-18T08:39:08.574Z,59.87
2017-10-18T08:41:36.045Z,63.57
2017-10-18T08:44:03.659Z,60.50
2017-10-18T08:46:31.310Z,62.30
2017-10-18T08:48:58.777Z,75.80
2017-10-18T08:51:26.258Z,54.57
2017-10-18T08:53:53.730Z,61.30
2017-10-18T08:56:21.315Z,68.43
2017-10-18T08:58:48.792Z,70.93
2017-10-18T09:01:16.352Z,61.87
2017-10-18T09:03:44.092Z,68.43
2017-10-18T09:06:12.333Z,83.17
2017-10-18T09:08:39.791Z,63.47
2017-10-18T09:11:07.265Z,74.60
2017-10-18T09:13:36.250Z,72.60
2017-10-18T09:16:03.716Z,63.17
2017-10-18T09:18:31.193Z,61.20
2017-10-18T09:20:59.438Z,65.77
2017-10-18T09:23:28.432Z,66.10
2017-10-18T09:25:55.993Z,65.60
2017-10-18T09:28:23.557Z,68.20
2017-10-18T09:30:51.027Z,79.90
2017-10-18T09:33:19.266Z,64.50
2017-10-18T09:35:46.737Z,60.00
2017-10-18T09:38:14.209Z,68.30
2017-10-18T09:40:41.679Z,66.43
2017-10-18T09:43:09.928Z,64.70
2017-10-18T09:45:37.393Z,66.83
2017-10-18T09:48:04.950Z,67.33
2017-10-18T09:50:32.519Z,63.30
2017-10-18T09:53:00.753Z,54.00
2017-10-18T09:55:28.259Z,60.80
2017-10-18T09:57:56.490Z,52.77
2017-10-18T10:00:24.013Z,58.20
2017-10-18T10:02:51.475Z,52.60
2017-10-18T10:05:18.951Z,40.20
2017-10-18T10:07:46.429Z,55.97
2017-10-18T10:10:14.010Z,56.23
2017-10-18T10:12:41.486Z,50.73
2017-10-18T10:15:09.786Z,50.80
2017-10-18T10:17:37.302Z,48.80
2017-10-18T10:20:04.761Z,40.90
2017-10-18T10:22:33.017Z,47.47
2017-10-18T10:25:01.444Z,59.43
2017-10-18T10:27:28.927Z,51.63
2017-10-18T10:29:56.421Z,50.50
2017-10-18T10:32:23.897Z,42.43
2017-10-18T10:34:52.166Z,51.27
2017-10-18T10:37:20.417Z,61.70
2017-10-18T10:39:47.885Z,52.53
2017-10-18T10:42:15.451Z,52.20
2017-10-18T10:44:42.925Z,55.43
2017-10-18T10:47:11.485Z,50.23
2017-10-18T10:49:39.105Z,40.87
2017-10-18T10:52:06.725Z,58.07
2017-10-18T10:54:35.105Z,46.90
2017-10-18T10:57:03.355Z,46.50
2017-10-18T10:59:31.589Z,46.30
2017-10-18T11:01:59.064Z,53.37
2017-10-18T11:04:26.576Z,47.83
2017-10-18T11:06:54.829Z,42.90
2017-10-18T11:09:23.066Z,37.73
2017-10-18T11:11:50.648Z,43.63
2017-10-18T11:14:18.118Z,44.73
2017-10-18T11:16:46.357Z,46.70
2017-10-18T11:19:13.833Z,42.83
2017-10-18T11:21:42.173Z,42.80
2017-10-18T11:24:09.639Z,46.80
2017-10-18T11:26:37.103Z,39.60
2017-10-18T11:29:04.630Z,38.17
2017-10-18T11:31:32.114Z,41.87
2017-10-18T11:33:59.595Z,36.70
2017-10-18T11:36:27.062Z,42.07
2017-10-18T11:38:55.426Z,38.37
2017-10-18T11:41:22.890Z,41.77
2017-10-18T11:43:50.472Z,36.00
2017-10-18T11:46:18.014Z,34.13
2017-10-18T11:48:45.489Z,30.87
2017-10-18T11:51:13.728Z,31.60
2017-10-18T11:53:41.300Z,37.70
2017-10-18T11:56:09.529Z,33.63
2017-10-18T11:58:37.003Z,36.07
2017-10-18T12:01:04.478Z,38.20
2017-10-18T12:03:31.948Z,30.80
2017-10-18T12:05:59.418Z,33.27
2017-10-18T12:08:27.666Z,30.90
2017-10-18T12:10:55.258Z,43.80
2017-10-18T12:13:23.487Z,38.83
2017-10-18T12:15:50.962Z,32.03
2017-10-18T12:18:18.588Z,31.93
2017-10-18T12:20:46.069Z,35.10
2017-10-18T12:23:13.555Z,27.40
2017-10-18T12:25:41.785Z,28.57
2017-10-18T12:28:09.265Z,30.83
2017-10-18T12:30:36.733Z,36.07
2017-10-18T12:33:04.185Z,32.53
2017-10-18T12:35:31.741Z,33.90
2017-10-18T12:37:59.214Z,32.20
2017-10-18T12:40:26.759Z,31.20
2017-10-18T12:42:54.313Z,32.73
2017-10-18T12:45:21.955Z,31.83
2017-10-18T12:47:49.536Z,27.40
2017-10-18T12:50:17.002Z,34.67
2017-10-18T12:52:44.493Z,25.33
2017-10-18T12:55:12.005Z,39.93
2017-10-18T12:57:39.474Z,29.23
2017-10-18T13:00:07.060Z,29.47
2017-10-18T13:02:35.297Z,30.60
2017-10-18T13:05:04.278Z,29.30
2017-10-18T13:07:31.859Z,34.23
2017-10-18T13:09:59.405Z,19.77
2017-10-18T13:12:26.965Z,23.87
2017-10-18T13:14:55.547Z,25.13
2017-10-18T13:17:23.100Z,23.53
2017-10-18T13:19:50.574Z,25.63
2017-10-18T13:22:18.140Z,16.87
2017-10-18T13:24:45.607Z,25.30
2017-10-18T13:27:13.846Z,23.77
2017-10-18T13:29:41.308Z,28.33
2017-10-18T13:32:08.768Z,23.63
2017-10-18T13:34:36.331Z,21.47
2017-10-18T13:37:03.789Z,24.60
2017-10-18T13:39:31.278Z,23.57
2017-10-18T13:41:59.993Z,19.30
2017-10-18T13:44:28.977Z,20.03
2017-10-18T13:46:56.946Z,22.77
2017-10-18T13:49:24.920Z,26.57
2017-10-18T13:51:53.497Z,23.17
2017-10-18T13:54:21.471Z,25.50
2017-10-18T13:56:49.550Z,26.43
2017-10-18T13:59:18.101Z,31.93
2017-10-18T14:01:45.680Z,23.23
2017-10-18T14:04:13.391Z,22.87
2017-10-18T14:06:40.860Z,25.70
2017-10-18T14:09:10.405Z,28.00
2017-10-18T14:11:37.860Z,25.30
2017-10-18T14:14:05.370Z,26.60
2017-10-18T14:16:32.859Z,23.43
2017-10-18T14:19:00.321Z,27.73
2017-10-18T14:21:27.789Z,25.43
2017-10-18T14:23:55.300Z,26.67
2017-10-18T14:26:22.802Z,26.03
2017-10-18T14:28:50.274Z,30.07
2017-10-18T14:31:18.638Z,30.53
2017-10-18T14:33:46.276Z,23.30
2017-10-18T14:36:14.003Z,26.10
2017-10-18T14:38:41.622Z,30.40
2017-10-18T14:41:09.103Z,25.10
2017-10-18T14:43:36.569Z,29.23
2017-10-18T14:46:04.037Z,39.10
2017-10-18T14:48:31.650Z,35.33
2017-10-18T14:50:59.145Z,31.17
2017-10-18T14:53:28.505Z,35.37
2017-10-18T14:55:55.978Z,23.07
2017-10-18T14:58:23.523Z,28.10
2017-10-18T15:00:50.996Z,34.50
2017-10-18T15:03:18.601Z,30.00
2017-10-18T15:05:46.832Z,27.30
2017-10-18T15:08:14.293Z,25.83
2017-10-18T15:10:41.765Z,28.63
2017-10-18T15:13:09.237Z,40.43
2017-10-18T15:15:36.713Z,31.50
2017-10-18T15:18:04.966Z,32.83
2017-10-18T15:20:32.439Z,33.93
2017-10-18T15:23:00.704Z,34.27
2017-10-18T15:25:28.256Z,28.63
2017-10-18T15:27:55.741Z,30.20
2017-10-18T15:30:23.902Z,30.17
2017-10-18T15:32:52.154Z,26.10
2017-10-18T15:35:19.633Z,30.47
2017-10-18T15:37:47.882Z,28.93
2017-10-18T15:40:15.459Z,33.03
2017-10-18T15:42:42.949Z,27.63
2017-10-18T15:45:10.476Z,37.77
2017-10-18T15:47:37.972Z,36.17
2017-10-18T15:50:05.449Z,41.10
2017-10-18T15:52:32.900Z,33.60
2017-10-18T15:55:00.386Z,32.40
2017-10-18T15:57:27.905Z,39.43
2017-10-18T15:59:55.386Z,31.17
2017-10-18T16:02:22.846Z,35.20
2017-10-18T16:04:50.321Z,37.30
2017-10-18T16:07:17.789Z,34.87
2017-10-18T16:09:45.267Z,35.80
2017-10-18T16:12:12.729Z,41.83
2017-10-18T16:14:40.199Z,39.03
2017-10-18T16:17:07.703Z,41.10
2017-10-18T16:19:35.169Z,40.20
2017-10-18T16:22:02.729Z,40.57
2017-10-18T16:24:30.230Z,27.30
2017-10-18T16:26:57.751Z,36.70
2017-10-18T16:29:25.230Z,43.50
2017-10-18T16:31:52.711Z,37.93
2017-10-18T16:34:20.175Z,28.37
2017-10-18T16:36:47.666Z,34.67
2017-10-18T16:39:15.268Z,36.80
2017-10-18T16:41:42.808Z,40.77
2017-10-18T16:44:11.061Z,28.53
2017-10-18T16:46:38.622Z,38.70
2017-10-18T16:49:06.121Z,38.93
2017-10-18T16:51:33.581Z,41.07
2017-10-18T16:54:01.059Z,33.20
2017-10-18T16:56:28.553Z,32.30
2017-10-18T16:58:56.799Z,38.97
2017-10-18T17:01:24.280Z,33.93
2017-10-18T17:03:51.767Z,43.60
2017-10-18T17:06:20.010Z,38.77
2017-10-18T17:08:48.988Z,34.10
2017-10-18T17:11:17.876Z,35.93
2017-10-18T17:13:45.451Z,32.67
2017-10-18T17:16:12.914Z,40.50
2017-10-18T17:18:40.402Z,45.50
2017-10-18T17:21:07.879Z,37.40
2017-10-18T17:23:35.357Z,39.63
2017-10-18T17:26:02.833Z,38.57
2017-10-18T17:28:30.308Z,36.03
2017-10-18T17:30:58.539Z,42.67
2017-10-18T17:33:26.011Z,33.63
2017-10-18T17:35:53.577Z,34.53
2017-10-18T17:38:21.147Z,35.87
2017-10-18T17:40:48.619Z,35.10
2017-10-18T17:43:16.894Z,36.03
2017-10-18T17:45:45.130Z,36.80
2017-10-18T17:48:12.593Z,40.83
2017-10-18T17:50:40.142Z,38.90
2017-10-18T17:53:08.141Z,38.47
2017-10-18T17:55:35.735Z,36.20
2017-10-18T17:58:03.258Z,34.00
2017-10-18T18:00:30.717Z,38.00
2017-10-18T18:02:58.190Z,39.93
2017-10-18T18:05:26.494Z,41.93
2017-10-18T18:07:54.005Z,49.40
2017-10-18T18:10:22.242Z,45.30
2017-10-18T18:12:49.718Z,48.30
2017-10-18T18:15:17.191Z,46.53
2017-10-18T18:17:44.677Z,48.13
2017-10-18T18:20:12.911Z,49.43
2017-10-18T18:22:41.915Z,42.20
2017-10-18T18:25:09.470Z,37.67
2017-10-18T18:27:37.080Z,51.30
2017-10-18T18:30:04.592Z,48.23
2017-10-18T18:32:32.056Z,40.90
2017-10-18T18:35:00.303Z,44.17
2017-10-18T18:37:27.778Z,43.87
2017-10-18T18:39:55.259Z,37.00
2017-10-18T18:42:23.493Z,41.30
2017-10-18T18:44:51.016Z,44.33
2017-10-18T18:47:18.482Z,38.43
2017-10-18T18:49:45.981Z,41.77
2017-10-18T18:52:13.488Z,46.80
2017-10-18T18:54:40.998Z,40.43
2017-10-18T18:57:09.245Z,52.00
2017-10-18T18:59:36.718Z,40.20
2017-10-18T19:02:04.425Z,41.73
2017-10-18T19:04:31.950Z,55.40
2017-10-18T19:06:59.416Z,42.47
2017-10-18T19:09:27.673Z,49.80
2017-10-18T19:11:55.142Z,46.33
2017-10-18T19:14:23.399Z,47.80
2017-10-18T19:16:50.865Z,45.27
2017-10-18T19:19:18.337Z,50.60
2017-10-18T19:21:45.877Z,53.43
2017-10-18T19:24:13.355Z,49.20
2017-10-18T19:26:41.601Z,48.60
2017-10-18T19:29:09.090Z,50.43
2017-10-18T19:31:37.336Z,51.33
2017-10-18T19:34:04.817Z,47.63
2017-10-18T19:36:33.066Z,57.37
2017-10-18T19:39:00.544Z,54.40
2017-10-18T19:41:28.795Z,46.23
2017-10-18T19:43:56.422Z,57.07
2017-10-18T19:46:23.882Z,54.23
2017-10-18T19:48:51.388Z,46.97
2017-10-18T19:51:18.948Z,55.60
2017-10-18T19:53:47.181Z,44.70
2017-10-18T19:56:14.654Z,50.77
2017-10-18T19:58:42.140Z,42.83
2017-10-18T20:01:10.386Z,52.53
2017-10-18T20:03:37.952Z,45.43
2017-10-18T20:06:06.274Z,52.53
2017-10-18T20:08:33.776Z,66.70
2017-10-18T20:11:01.358Z,44.63
2017-10-18T20:13:29.633Z,53.77
2017-10-18T20:15:57.188Z,42.97
2017-10-18T20:18:24.758Z,56.10
2017-10-18T20:20:52.237Z,57.83
2017-10-18T20:23:19.713Z,60.10
2017-10-18T20:25:47.202Z,60.20
2017-10-18T20:28:14.673Z,59.80
2017-10-18T20:30:42.143Z,54.90
2017-10-18T20:33:09.617Z,49.90
2017-10-18T20:35:37.102Z,62.13
2017-10-18T20:38:04.578Z,43.53
2017-10-18T20:40:32.062Z,55.17
2017-10-18T20:42:59.634Z,50.33
2017-10-18T20:45:27.888Z,45.10
2017-10-18T20:47:55.402Z,36.17
2017-10-18T20:50:22.868Z,53.43
2017-10-18T20:52:50.361Z,47.17
2017-10-18T20:55:17.880Z,34.83
2017-10-18T20:57:45.379Z,34.30
2017-10-18T21:00:12.953Z,43.20
2017-10-18T21:02:40.425Z,46.80
2017-10-18T21:05:08.661Z,37.97
2017-10-18T21:07:36.156Z,44.40
2017-10-18T21:10:04.395Z,40.97
2017-10-18T21:12:31.916Z,38.37
2017-10-18T21:14:59.393Z,37.40
2017-10-18T21:17:26.862Z,33.83
2017-10-18T21:19:54.354Z,41.63
2017-10-18T21:22:22.664Z,41.97
2017-10-18T21:24:50.130Z,40.07
2017-10-18T21:27:17.636Z,43.03
2017-10-18T21:29:45.116Z,47.23
2017-10-18T21:32:12.650Z,45.57
2017-10-18T21:34:40.889Z,41.00
2017-10-18T21:37:08.358Z,40.70
2017-10-18T21:39:35.843Z,44.87
2017-10-18T21:42:04.073Z,39.50
2017-10-18T21:44:31.572Z,39.10
2017-10-18T21:46:59.848Z,46.93
2017-10-18T21:49:27.451Z,40.53
2017-10-18T21:51:54.966Z,44.07
2017-10-18T21:54:23.209Z,35.13
2017-10-18T21:56:50.789Z,42.80
2017-10-18T21:59:18.265Z,39.30
2017-10-18T22:01:46.497Z,38.90
2017-10-18T22:04:13.973Z,38.43
2017-10-18T22:06:41.593Z,34.73
2017-10-18T22:09:09.056Z,31.77
2017-10-18T22:11:36.531Z,46.50
2017-10-18T22:14:03.984Z,32.90
2017-10-18T22:16:31.475Z,46.20
2017-10-18T22:18:59.734Z,38.33
2017-10-18T22:21:27.214Z,44.57
2017-10-18T22:23:55.461Z,41.63
2017-10-18T22:26:22.937Z,39.63
2017-10-18T22:28:50.400Z,38.73
2017-10-18T22:31:18.666Z,40.63
2017-10-18T22:33:46.217Z,48.17
2017-10-18T22:36:14.042Z,40.70
2017-10-18T22:38:41.557Z,36.17
2017-10-18T22:41:09.786Z,40.40
2017-10-18T22:43:37.259Z,42.77
2017-10-18T22:46:04.739Z,47.30
2017-10-18T22:48:32.335Z,44.73
2017-10-18T22:50:59.806Z,45.43
2017-10-18T22:53:27.279Z,38.63
2017-10-18T22:55:54.743Z,33.77
2017-10-18T22:58:22.239Z,53.53
2017-10-18T23:00:50.503Z,36.70
2017-10-18T23:03:18.761Z,36.90
2017-10-18T23:05:46.233Z,44.87
2017-10-18T23:08:14.465Z,41.43
2017-10-18T23:10:41.956Z,35.80
2017-10-18T23:13:09.509Z,47.53
2017-10-18T23:15:36.999Z,39.90
2017-10-18T23:18:05.253Z,37.53
2017-10-18T23:20:32.757Z,38.50
2017-10-18T23:23:00.227Z,40.77
2017-10-18T23:25:27.777Z,31.67
2017-10-18T23:27:55.246Z,39.73
2017-10-18T23:30:22.726Z,38.40
2017-10-18T23:32:50.181Z,37.50
2017-10-18T23:35:17.751Z,39.70
2017-10-18T23:37:45.218Z,38.20
2017-10-18T23:40:13.453Z,38.33
2017-10-18T23:42:40.937Z,38.93
2017-10-18T23:45:08.502Z,37.97
2017-10-18T23:47:36.045Z,42.80
2017-10-18T23:50:03.517Z,38.67
2017-10-18T23:52:36.640Z,37.90
2017-10-18T23:55:04.184Z,39.90
2017-10-18T23:57:32.417Z,37.00
2017-10-18T23:59:59.899Z,45.23
